sensor_id;sensor_type;location;lat;lon;timestamp;temperature;humidity
32147;DHT22;32190;49.112;8.598;2024-01-15T00:01:00;2.40;56.40
32147;DHT22;32190;49.112;8.598;2024-01-15T00:06:51;2.40;56.40
32147;DHT22;32190;49.112;8.598;2024-01-15T00:12:41;2.40;56.50
32147;DHT22;32190;49.112;8.598;2024-01-15T00:18:32;2.40;56.50
32147;DHT22;32190;49.112;8.598;2024-01-15T00:24:23;2.40;56.60
32147;DHT22;32190;49.112;8.598;2024-01-15T00:30:14;2.50;56.60
32147;DHT22;32190;49.112;8.598;2024-01-15T00:36:04;2.50;56.60
32147;DHT22;32190;49.112;8.598;2024-01-15T00:41:55;2.50;56.50
32147;DHT22;32190;49.112;8.598;2024-01-15T00:47:46;2.50;56.50
32147;DHT22;32190;49.112;8.598;2024-01-15T00:53:36;2.60;56.60
32147;DHT22;32190;49.112;8.598;2024-01-15T00:59:27;2.60;56.50
32147;DHT22;32190;49.112;8.598;2024-01-15T01:05:18;2.60;56.60
32147;DHT22;32190;49.112;8.598;2024-01-15T01:11:13;2.60;56.60
32147;DHT22;32190;49.112;8.598;2024-01-15T01:17:04;2.60;56.60
32147;DHT22;32190;49.112;8.598;2024-01-15T01:22:54;2.60;56.60
32147;DHT22;32190;49.112;8.598;2024-01-15T01:28:45;2.60;56.60
32147;DHT22;32190;49.112;8.598;2024-01-15T01:34:40;2.60;56.60
32147;DHT22;32190;49.112;8.598;2024-01-15T01:40:34;2.60;56.60
32147;DHT22;32190;49.112;8.598;2024-01-15T01:46:27;2.60;56.60
32147;DHT22;32190;49.112;8.598;2024-01-15T01:52:17;2.50;56.50
32147;DHT22;32190;49.112;8.598;2024-01-15T01:58:08;2.50;56.60
32147;DHT22;32190;49.112;8.598;2024-01-15T02:03:59;2.50;56.70
32147;DHT22;32190;49.112;8.598;2024-01-15T02:09:50;2.50;56.80
32147;DHT22;32190;49.112;8.598;2024-01-15T02:15:41;2.50;56.80
32147;DHT22;32190;49.112;8.598;2024-01-15T02:21:32;2.50;56.90
32147;DHT22;32190;49.112;8.598;2024-01-15T02:27:22;2.50;56.90
32147;DHT22;32190;49.112;8.598;2024-01-15T02:33:13;2.60;56.90
32147;DHT22;32190;49.112;8.598;2024-01-15T02:39:04;2.60;56.90
32147;DHT22;32190;49.112;8.598;2024-01-15T02:44:54;2.60;56.90
32147;DHT22;32190;49.112;8.598;2024-01-15T02:50:45;2.70;56.90
32147;DHT22;32190;49.112;8.598;2024-01-15T02:56:35;2.60;56.80
32147;DHT22;32190;49.112;8.598;2024-01-15T03:02:28;2.60;56.90
32147;DHT22;32190;49.112;8.598;2024-01-15T03:08:19;2.60;56.90
32147;DHT22;32190;49.112;8.598;2024-01-15T03:14:09;2.60;56.90
32147;DHT22;32190;49.112;8.598;2024-01-15T03:20:00;2.60;56.90
32147;DHT22;32190;49.112;8.598;2024-01-15T03:25:50;2.60;56.90
32147;DHT22;32190;49.112;8.598;2024-01-15T03:31:41;2.60;56.90
32147;DHT22;32190;49.112;8.598;2024-01-15T03:37:31;2.60;57.00
32147;DHT22;32190;49.112;8.598;2024-01-15T03:43:22;2.60;57.00
32147;DHT22;32190;49.112;8.598;2024-01-15T03:49:12;2.60;57.00
32147;DHT22;32190;49.112;8.598;2024-01-15T03:55:04;2.60;57.00
32147;DHT22;32190;49.112;8.598;2024-01-15T04:00:55;2.60;57.00
32147;DHT22;32190;49.112;8.598;2024-01-15T04:06:45;2.60;57.00
32147;DHT22;32190;49.112;8.598;2024-01-15T04:12:36;2.70;57.00
32147;DHT22;32190;49.112;8.598;2024-01-15T04:18:26;2.70;57.00
32147;DHT22;32190;49.112;8.598;2024-01-15T04:24:17;2.70;57.10
32147;DHT22;32190;49.112;8.598;2024-01-15T04:30:08;2.70;57.10
32147;DHT22;32190;49.112;8.598;2024-01-15T04:36:03;2.60;57.20
32147;DHT22;32190;49.112;8.598;2024-01-15T04:41:54;2.70;57.40
32147;DHT22;32190;49.112;8.598;2024-01-15T04:47:44;2.70;57.30
32147;DHT22;32190;49.112;8.598;2024-01-15T04:53:35;2.70;57.30
32147;DHT22;32190;49.112;8.598;2024-01-15T04:59:26;2.70;57.30
32147;DHT22;32190;49.112;8.598;2024-01-15T05:05:16;2.70;57.30
32147;DHT22;32190;49.112;8.598;2024-01-15T05:11:07;2.70;57.30
32147;DHT22;32190;49.112;8.598;2024-01-15T05:16:57;2.80;57.20
32147;DHT22;32190;49.112;8.598;2024-01-15T05:22:48;2.80;57.40
32147;DHT22;32190;49.112;8.598;2024-01-15T05:28:41;2.80;57.30
32147;DHT22;32190;49.112;8.598;2024-01-15T05:34:33;2.80;57.50
32147;DHT22;32190;49.112;8.598;2024-01-15T05:40:23;2.80;57.50
32147;DHT22;32190;49.112;8.598;2024-01-15T05:46:14;2.80;57.50
32147;DHT22;32190;49.112;8.598;2024-01-15T05:52:06;2.90;57.60
32147;DHT22;32190;49.112;8.598;2024-01-15T05:57:56;2.80;57.60
32147;DHT22;32190;49.112;8.598;2024-01-15T06:03:47;2.90;57.60
32147;DHT22;32190;49.112;8.598;2024-01-15T06:09:37;2.90;57.50
32147;DHT22;32190;49.112;8.598;2024-01-15T06:15:28;2.90;57.50
32147;DHT22;32190;49.112;8.598;2024-01-15T06:21:20;2.90;57.50
32147;DHT22;32190;49.112;8.598;2024-01-15T06:27:10;2.90;57.60
32147;DHT22;32190;49.112;8.598;2024-01-15T06:33:01;2.90;57.60
32147;DHT22;32190;49.112;8.598;2024-01-15T06:38:51;3.00;57.60
32147;DHT22;32190;49.112;8.598;2024-01-15T06:44:42;3.00;57.50
32147;DHT22;32190;49.112;8.598;2024-01-15T06:50:33;3.00;57.60
32147;DHT22;32190;49.112;8.598;2024-01-15T06:56:24;3.00;57.60
32147;DHT22;32190;49.112;8.598;2024-01-15T07:02:14;3.00;57.70
32147;DHT22;32190;49.112;8.598;2024-01-15T07:08:05;2.90;57.70
32147;DHT22;32190;49.112;8.598;2024-01-15T07:13:55;3.00;57.80
32147;DHT22;32190;49.112;8.598;2024-01-15T07:19:46;3.00;57.90
32147;DHT22;32190;49.112;8.598;2024-01-15T07:25:36;3.00;57.90
32147;DHT22;32190;49.112;8.598;2024-01-15T07:31:27;3.00;57.90
32147;DHT22;32190;49.112;8.598;2024-01-15T07:37:18;3.00;57.90
32147;DHT22;32190;49.112;8.598;2024-01-15T07:43:08;3.00;57.90
32147;DHT22;32190;49.112;8.598;2024-01-15T07:48:59;3.00;57.90
32147;DHT22;32190;49.112;8.598;2024-01-15T07:54:49;3.00;58.00
32147;DHT22;32190;49.112;8.598;2024-01-15T08:00:40;3.00;58.00
32147;DHT22;32190;49.112;8.598;2024-01-15T08:06:30;3.10;58.00
32147;DHT22;32190;49.112;8.598;2024-01-15T08:12:22;3.10;58.00
32147;DHT22;32190;49.112;8.598;2024-01-15T08:18:12;3.10;58.00
32147;DHT22;32190;49.112;8.598;2024-01-15T08:24:03;3.10;58.00
32147;DHT22;32190;49.112;8.598;2024-01-15T08:29:54;3.20;58.20
32147;DHT22;32190;49.112;8.598;2024-01-15T08:35:44;3.20;58.30
32147;DHT22;32190;49.112;8.598;2024-01-15T08:41:36;3.20;58.20
32147;DHT22;32190;49.112;8.598;2024-01-15T08:47:26;3.20;58.20
32147;DHT22;32190;49.112;8.598;2024-01-15T08:53:18;3.20;58.20
32147;DHT22;32190;49.112;8.598;2024-01-15T08:59:17;3.20;58.30
32147;DHT22;32190;49.112;8.598;2024-01-15T09:05:14;3.30;58.40
32147;DHT22;32190;49.112;8.598;2024-01-15T09:11:05;3.30;58.40
32147;DHT22;32190;49.112;8.598;2024-01-15T09:17:04;3.30;58.30
32147;DHT22;32190;49.112;8.598;2024-01-15T09:28:54;3.40;58.40
32147;DHT22;32190;49.112;8.598;2024-01-15T09:34:48;3.40;58.40
32147;DHT22;32190;49.112;8.598;2024-01-15T09:41:01;3.40;58.40
32147;DHT22;32190;49.112;8.598;2024-01-15T09:46:51;3.40;58.40
32147;DHT22;32190;49.112;8.598;2024-01-15T09:52:43;3.50;58.50
32147;DHT22;32190;49.112;8.598;2024-01-15T09:58:35;3.50;58.60
32147;DHT22;32190;49.112;8.598;2024-01-15T10:04:45;3.50;58.60
32147;DHT22;32190;49.112;8.598;2024-01-15T10:10:44;3.60;58.90
32147;DHT22;32190;49.112;8.598;2024-01-15T10:16:35;3.60;58.70
32147;DHT22;32190;49.112;8.598;2024-01-15T10:22:26;3.70;59.10
32147;DHT22;32190;49.112;8.598;2024-01-15T10:28:19;3.90;59.50
32147;DHT22;32190;49.112;8.598;2024-01-15T10:34:13;4.10;59.80
32147;DHT22;32190;49.112;8.598;2024-01-15T10:40:19;4.30;59.70
32147;DHT22;32190;49.112;8.598;2024-01-15T10:46:10;4.40;60.20
32147;DHT22;32190;49.112;8.598;2024-01-15T10:52:04;4.50;60.30
32147;DHT22;32190;49.112;8.598;2024-01-15T10:57:55;4.60;59.90
32147;DHT22;32190;49.112;8.598;2024-01-15T11:03:47;4.80;59.90
32147;DHT22;32190;49.112;8.598;2024-01-15T11:10:02;4.80;59.80
32147;DHT22;32190;49.112;8.598;2024-01-15T11:16:04;5.00;60.20
32147;DHT22;32190;49.112;8.598;2024-01-15T11:28:49;5.10;60.10
32147;DHT22;32190;49.112;8.598;2024-01-15T11:35:04;5.20;60.00
32147;DHT22;32190;49.112;8.598;2024-01-15T11:40:58;5.20;59.90
32147;DHT22;32190;49.112;8.598;2024-01-15T11:47:09;5.30;59.70
32147;DHT22;32190;49.112;8.598;2024-01-15T11:59:48;5.20;59.90
32147;DHT22;32190;49.112;8.598;2024-01-15T12:06:10;5.30;59.80
32147;DHT22;32190;49.112;8.598;2024-01-15T12:12:07;5.30;60.00
32147;DHT22;32190;49.112;8.598;2024-01-15T12:18:02;5.30;59.90
32147;DHT22;32190;49.112;8.598;2024-01-15T12:23:53;5.30;60.00
32147;DHT22;32190;49.112;8.598;2024-01-15T12:29:44;5.30;60.00
32147;DHT22;32190;49.112;8.598;2024-01-15T12:35:41;5.30;60.10
32147;DHT22;32190;49.112;8.598;2024-01-15T12:41:32;5.30;60.20
32147;DHT22;32190;49.112;8.598;2024-01-15T12:47:23;5.30;60.00
32147;DHT22;32190;49.112;8.598;2024-01-15T12:53:14;5.30;60.10
32147;DHT22;32190;49.112;8.598;2024-01-15T12:59:05;5.40;60.30
32147;DHT22;32190;49.112;8.598;2024-01-15T13:04:58;5.40;60.30
32147;DHT22;32190;49.112;8.598;2024-01-15T13:10:49;5.40;60.30
32147;DHT22;32190;49.112;8.598;2024-01-15T13:16:42;5.40;60.30
32147;DHT22;32190;49.112;8.598;2024-01-15T13:22:33;5.50;60.30
32147;DHT22;32190;49.112;8.598;2024-01-15T13:28:23;5.60;60.30
32147;DHT22;32190;49.112;8.598;2024-01-15T13:34:14;5.60;60.30
32147;DHT22;32190;49.112;8.598;2024-01-15T13:40:05;5.60;60.20
32147;DHT22;32190;49.112;8.598;2024-01-15T13:45:57;5.60;60.20
32147;DHT22;32190;49.112;8.598;2024-01-15T13:51:48;5.60;60.30
32147;DHT22;32190;49.112;8.598;2024-01-15T13:57:40;5.50;60.30
32147;DHT22;32190;49.112;8.598;2024-01-15T14:03:30;5.60;60.50
32147;DHT22;32190;49.112;8.598;2024-01-15T14:09:21;5.60;60.50
32147;DHT22;32190;49.112;8.598;2024-01-15T14:15:12;5.60;60.50
32147;DHT22;32190;49.112;8.598;2024-01-15T14:21:02;5.60;60.60
32147;DHT22;32190;49.112;8.598;2024-01-15T14:26:54;5.60;60.50
32147;DHT22;32190;49.112;8.598;2024-01-15T14:32:44;5.70;60.40
32147;DHT22;32190;49.112;8.598;2024-01-15T14:38:35;5.70;60.20
32147;DHT22;32190;49.112;8.598;2024-01-15T14:44:25;5.70;60.20
32147;DHT22;32190;49.112;8.598;2024-01-15T14:50:16;5.70;60.10
32147;DHT22;32190;49.112;8.598;2024-01-15T14:56:07;5.80;60.10
32147;DHT22;32190;49.112;8.598;2024-01-15T15:01:58;5.70;60.00
32147;DHT22;32190;49.112;8.598;2024-01-15T15:07:49;5.70;60.00
32147;DHT22;32190;49.112;8.598;2024-01-15T15:13:39;5.60;60.10
32147;DHT22;32190;49.112;8.598;2024-01-15T15:19:30;5.60;60.10
32147;DHT22;32190;49.112;8.598;2024-01-15T15:25:21;5.60;60.10
32147;DHT22;32190;49.112;8.598;2024-01-15T15:31:12;5.60;60.10
32147;DHT22;32190;49.112;8.598;2024-01-15T15:37:03;5.60;60.00
32147;DHT22;32190;49.112;8.598;2024-01-15T15:42:53;5.60;60.00
32147;DHT22;32190;49.112;8.598;2024-01-15T15:48:44;5.50;59.80
32147;DHT22;32190;49.112;8.598;2024-01-15T15:54:35;5.50;59.80
32147;DHT22;32190;49.112;8.598;2024-01-15T16:00:29;5.50;59.80
32147;DHT22;32190;49.112;8.598;2024-01-15T16:06:19;5.50;59.70
32147;DHT22;32190;49.112;8.598;2024-01-15T16:12:10;5.40;59.70
32147;DHT22;32190;49.112;8.598;2024-01-15T16:18:02;5.40;59.70
32147;DHT22;32190;49.112;8.598;2024-01-15T16:23:53;5.40;59.60
32147;DHT22;32190;49.112;8.598;2024-01-15T16:29:43;5.30;59.60
32147;DHT22;32190;49.112;8.598;2024-01-15T16:35:34;5.30;59.60
32147;DHT22;32190;49.112;8.598;2024-01-15T16:41:24;5.30;59.70
32147;DHT22;32190;49.112;8.598;2024-01-15T16:47:15;5.20;59.70
32147;DHT22;32190;49.112;8.598;2024-01-15T16:53:06;5.20;59.80
32147;DHT22;32190;49.112;8.598;2024-01-15T16:58:56;5.20;59.80
32147;DHT22;32190;49.112;8.598;2024-01-15T17:04:47;5.10;59.80
32147;DHT22;32190;49.112;8.598;2024-01-15T17:10:37;5.20;59.80
32147;DHT22;32190;49.112;8.598;2024-01-15T17:16:28;5.10;59.70
32147;DHT22;32190;49.112;8.598;2024-01-15T17:22:18;5.10;59.70
32147;DHT22;32190;49.112;8.598;2024-01-15T17:28:09;5.10;59.60
32147;DHT22;32190;49.112;8.598;2024-01-15T17:33:59;5.00;60.20
32147;DHT22;32190;49.112;8.598;2024-01-15T17:39:50;5.00;59.60
32147;DHT22;32190;49.112;8.598;2024-01-15T17:45:41;5.00;59.70
32147;DHT22;32190;49.112;8.598;2024-01-15T17:51:33;5.00;59.70
32147;DHT22;32190;49.112;8.598;2024-01-15T17:57:23;4.90;59.80
32147;DHT22;32190;49.112;8.598;2024-01-15T18:03:14;5.00;59.80
32147;DHT22;32190;49.112;8.598;2024-01-15T18:09:04;4.90;59.80
32147;DHT22;32190;49.112;8.598;2024-01-15T18:14:56;4.90;59.70
32147;DHT22;32190;49.112;8.598;2024-01-15T18:20:47;5.00;59.80
32147;DHT22;32190;49.112;8.598;2024-01-15T18:26:37;5.00;59.80
32147;DHT22;32190;49.112;8.598;2024-01-15T18:32:30;5.00;59.70
32147;DHT22;32190;49.112;8.598;2024-01-15T18:38:20;4.90;59.70
32147;DHT22;32190;49.112;8.598;2024-01-15T18:44:11;4.90;59.70
32147;DHT22;32190;49.112;8.598;2024-01-15T18:50:02;4.90;59.70
32147;DHT22;32190;49.112;8.598;2024-01-15T18:55:53;4.90;59.60
32147;DHT22;32190;49.112;8.598;2024-01-15T19:01:46;4.90;59.70
32147;DHT22;32190;49.112;8.598;2024-01-15T19:07:37;4.90;59.60
32147;DHT22;32190;49.112;8.598;2024-01-15T19:13:29;4.90;59.60
32147;DHT22;32190;49.112;8.598;2024-01-15T19:19:19;4.90;59.60
32147;DHT22;32190;49.112;8.598;2024-01-15T19:25:11;4.90;59.50
32147;DHT22;32190;49.112;8.598;2024-01-15T19:31:02;4.90;59.40
32147;DHT22;32190;49.112;8.598;2024-01-15T19:36:53;4.90;59.40
32147;DHT22;32190;49.112;8.598;2024-01-15T19:42:44;4.90;60.00
32147;DHT22;32190;49.112;8.598;2024-01-15T19:48:34;4.90;59.30
32147;DHT22;32190;49.112;8.598;2024-01-15T19:54:39;4.90;59.20
32147;DHT22;32190;49.112;8.598;2024-01-15T20:00:32;4.80;59.30
32147;DHT22;32190;49.112;8.598;2024-01-15T20:06:23;4.80;59.30
32147;DHT22;32190;49.112;8.598;2024-01-15T20:12:14;4.80;59.20
32147;DHT22;32190;49.112;8.598;2024-01-15T20:18:16;4.80;59.80
32147;DHT22;32190;49.112;8.598;2024-01-15T20:24:45;4.80;59.20
32147;DHT22;32190;49.112;8.598;2024-01-15T20:30:35;4.80;59.20
32147;DHT22;32190;49.112;8.598;2024-01-15T20:36:26;4.90;59.20
32147;DHT22;32190;49.112;8.598;2024-01-15T20:42:21;4.80;59.10
32147;DHT22;32190;49.112;8.598;2024-01-15T20:48:12;4.80;59.00
32147;DHT22;32190;49.112;8.598;2024-01-15T20:54:08;4.70;59.00
32147;DHT22;32190;49.112;8.598;2024-01-15T21:00:02;4.70;58.90
32147;DHT22;32190;49.112;8.598;2024-01-15T21:06:14;4.70;59.00
32147;DHT22;32190;49.112;8.598;2024-01-15T21:12:05;4.70;59.10
32147;DHT22;32190;49.112;8.598;2024-01-15T21:18:05;4.70;59.00
32147;DHT22;32190;49.112;8.598;2024-01-15T21:23:59;4.70;59.00
32147;DHT22;32190;49.112;8.598;2024-01-15T21:29:50;4.70;59.00
32147;DHT22;32190;49.112;8.598;2024-01-15T21:35:41;4.60;58.80
32147;DHT22;32190;49.112;8.598;2024-01-15T21:41:31;4.60;58.80
32147;DHT22;32190;49.112;8.598;2024-01-15T21:47:25;4.50;58.80
32147;DHT22;32190;49.112;8.598;2024-01-15T21:53:26;4.50;58.80
32147;DHT22;32190;49.112;8.598;2024-01-15T21:59:17;4.50;58.90
32147;DHT22;32190;49.112;8.598;2024-01-15T22:05:16;4.40;58.80
32147;DHT22;32190;49.112;8.598;2024-01-15T22:11:14;4.40;58.80
32147;DHT22;32190;49.112;8.598;2024-01-15T22:17:05;4.40;58.90
32147;DHT22;32190;49.112;8.598;2024-01-15T22:22:58;4.40;58.80
32147;DHT22;32190;49.112;8.598;2024-01-15T22:28:55;4.30;58.70
32147;DHT22;32190;49.112;8.598;2024-01-15T22:34:46;4.30;58.80
32147;DHT22;32190;49.112;8.598;2024-01-15T22:40:50;4.30;58.80
32147;DHT22;32190;49.112;8.598;2024-01-15T22:46:43;4.30;58.80
32147;DHT22;32190;49.112;8.598;2024-01-15T22:52:45;4.20;58.70
32147;DHT22;32190;49.112;8.598;2024-01-15T22:58:36;4.20;58.70
32147;DHT22;32190;49.112;8.598;2024-01-15T23:04:30;4.20;58.60
32147;DHT22;32190;49.112;8.598;2024-01-15T23:10:30;4.10;58.60
32147;DHT22;32190;49.112;8.598;2024-01-15T23:16:28;4.10;58.50
32147;DHT22;32190;49.112;8.598;2024-01-15T23:22:26;4.10;58.50
32147;DHT22;32190;49.112;8.598;2024-01-15T23:28:16;4.10;58.40
32147;DHT22;32190;49.112;8.598;2024-01-15T23:34:07;4.10;58.40
32147;DHT22;32190;49.112;8.598;2024-01-15T23:39:58;4.00;58.40
32147;DHT22;32190;49.112;8.598;2024-01-15T23:45:49;4.00;58.40
32147;DHT22;32190;49.112;8.598;2024-01-15T23:51:40;4.00;58.40
32147;DHT22;32190;49.112;8.598;2024-01-15T23:57:33;4.00;58.40
